Portada
METAR-TAF:

METAR-TAF

Aeropuertos :

Agen, Francia

latitud: 44-11N, longitud: 000-36E, altitud: 61 m

Observación

El informe se hizo hace 12 minutos, a las 04:30 UTC
Viento 8 kt del oeste-noroeste
Temperatura 19°C
Humedad 83%
Presión 1013 hPa
Visibilidad 10 km o más
Nubes dispersas a una altura de 3800 ft
Cielo cubierto a una altura de 4700 ft

METAR: LFBA 300430Z AUTO 30008KT 9999 SCT038 OVC047 19/16 Q1013

Hora: 06:42 (04:42 UTC)

Pronóstico

El informe se hizo hace 14 horas y 42 minutos, a las 14:00 UTC
Pronóstico válido del 29 a las 15 UTC al 29 a las 24 UTC
Viento 3 kt con dirección variable
Visibilidad 10 km o más
sin nubes por debajo de 1500 m y sin presencia de cumulonimbus.

TAF: LFBA 291400Z 2915/2924 VRB03KT CAVOK

Observaciones y pronósticos meteorológicos de más de 4000 aeropuertos (mensajes METAR y TAF).

Los puntos amarillos y rojos representan las estaciones disponibles.

Ponga el ratón en el punto deseado para ver el nombre de la estación.

Haga clic para ver las observaciones y los pronósticos meteorológicos.

Para cambiar el mapa : haga clic en los botones verdes con una cruz de color negro para hacer un zoom, en el botón verde con un guión para alejar o en las flechas verdes para mapas adyacentes.


METAR-TAF: